LFMH/EBU METAR and TAF weather

Enter ICAO airport designator
Station Type Date Time Source
LFMH METAR 2022/08/13 12:00 UTC NOAA

LFMH 131200Z AUTO 04006KT 350V090 CAVOK 33/05 Q1012


Station Type Date Time Source
LFMH Decoded METAR 2022/08/13 12:00 UTC NOAA

St-Etienne Boutheon, France (LFMH) 45-32N 004-18E 402M
Aug 13, 2022 - 08:00 AM EDT / 2022.08.13 1200 UTC
Wind: from the NE (040 degrees) at 7 MPH (6 KT) (direction variable):0
Visibility: greater than 7 mile(s):0
Temperature: 91 F (33 C)
Dew Point: 41 F (5 C)
Relative Humidity: 17%
Pressure (altimeter): 29.88 in. Hg (1012 hPa)
ob: LFMH 131200Z AUTO 04006KT 350V090 CAVOK 33/05 Q1012
cycle: 12

Station Type Date Time Source
LFMH TAF 2021/06/16 19:09 UTC NOAA

TAF LFMH 161901Z 1619/1712 CNL

Example: see airport list